Time;durP1;ratioP1;P1;durP2;ratioP2;P2;SDS_P1;SDS_P2;PMS_P1;PMS_P2;Temp;Humidity;BMP_temperature;BMP_pressure;BME280_temperature;BME280_humidity;BME280_pressure;Samples;Min_cycle;Max_cycle;Signal;HPM_P1;HPM_P2
2021/01/04 00:00:11;;;;;;;13.90;9.90;;;2.30;99.90;;;;;;5005593;28;20241;-81
2021/01/04 00:03:01;;;;;;;13.90;11.63;;;2.30;99.90;;;;;;5005209;28;20215;-81
2021/01/04 00:05:32;;;;;;;13.07;11.00;;;2.30;99.90;;;;;;4998905;28;20289;-80
2021/01/04 00:08:37;;;;;;;13.55;11.95;;;2.20;99.90;;;;;;5004680;28;20231;-81
2021/01/04 00:11:19;;;;;;;13.35;11.00;;;2.20;99.90;;;;;;5005648;28;20187;-79
2021/01/04 00:13:55;;;;;;;14.63;11.45;;;2.10;99.90;;;;;;5005961;28;20291;-78
2021/01/04 00:16:42;;;;;;;13.98;9.98;;;2.10;99.90;;;;;;5006085;28;20247;-80
2021/01/04 00:19:15;;;;;;;13.57;11.85;;;2.20;99.90;;;;;;5006057;28;20200;-80
2021/01/04 00:21:50;;;;;;;14.00;11.73;;;2.20;99.90;;;;;;5005825;28;20214;-79
2021/01/04 00:24:25;;;;;;;13.25;10.43;;;2.10;99.90;;;;;;5004980;28;20227;-80
2021/01/04 00:26:58;;;;;;;13.68;10.63;;;2.00;99.90;;;;;;5005257;28;20207;-79
2021/01/04 00:29:24;;;;;;;11.73;10.40;;;2.10;99.90;;;;;;5005864;28;20202;-80
2021/01/04 00:31:57;;;;;;;12.18;9.25;;;2.00;99.90;;;;;;5006277;28;20202;-81
2021/01/04 00:34:27;;;;;;;12.27;10.02;;;2.10;99.90;;;;;;5005593;28;20218;-81
2021/01/04 00:37:37;;;;;;;12.50;10.43;;;2.10;99.90;;;;;;5000323;28;20582;-79
2021/01/04 00:40:11;;;;;;;11.90;9.15;;;2.10;99.90;;;;;;4996442;28;20202;-79
2021/01/04 00:42:42;;;;;;;12.52;9.75;;;2.10;99.90;;;;;;4998424;28;20207;-80
2021/01/04 00:45:16;;;;;;;12.25;9.68;;;2.10;99.90;;;;;;5007474;28;20224;-79
2021/01/04 00:47:56;;;;;;;8.82;7.85;;;2.10;99.90;;;;;;5014793;28;20194;-80
2021/01/04 00:50:32;;;;;;;10.30;8.25;;;2.10;99.90;;;;;;5020557;28;20574;-80
2021/01/04 00:53:05;;;;;;;10.80;9.07;;;2.20;99.90;;;;;;5020814;28;20539;-80
2021/01/04 00:55:46;;;;;;;12.85;10.13;;;2.20;99.90;;;;;;5021612;28;20177;-80
2021/01/04 00:58:31;;;;;;;12.60;9.38;;;2.20;99.90;;;;;;5020914;28;20207;-79
2021/01/04 01:01:03;;;;;;;11.48;8.75;;;2.20;99.90;;;;;;5020704;28;20205;-77
2021/01/04 01:03:56;;;;;;;14.05;10.77;;;2.20;99.90;;;;;;5021655;28;20284;-80
2021/01/04 01:06:27;;;;;;;11.50;10.07;;;2.20;99.90;;;;;;5017988;28;20189;-79
2021/01/04 01:08:55;;;;;;;13.40;11.50;;;2.20;99.90;;;;;;5022372;28;20174;-79
2021/01/04 01:11:40;;;;;;;15.15;11.40;;;2.20;99.90;;;;;;5022250;28;20204;-80
2021/01/04 01:14:19;;;;;;;11.43;9.52;;;2.20;99.90;;;;;;5013432;28;20253;-79
2021/01/04 01:17:18;;;;;;;11.07;8.60;;;2.20;99.90;;;;;;5013802;28;20195;-80
2021/01/04 01:19:47;;;;;;;11.07;8.02;;;2.10;99.90;;;;;;4999542;28;20199;-79
2021/01/04 01:22:24;;;;;;;12.40;9.45;;;2.10;99.90;;;;;;5021837;28;20219;-80
2021/01/04 01:24:50;;;;;;;8.88;7.47;;;2.20;99.90;;;;;;5022023;28;20230;-79
2021/01/04 01:27:52;;;;;;;10.43;8.73;;;2.20;99.90;;;;;;5022453;28;20321;-81
2021/01/04 01:30:56;;;;;;;11.20;8.63;;;2.20;99.90;;;;;;4981218;28;20203;-79
2021/01/04 01:34:03;;;;;;;11.82;8.10;;;2.10;99.90;;;;;;5021911;28;20305;-79
2021/01/04 01:36:43;;;;;;;11.98;9.60;;;2.10;99.90;;;;;;5012880;28;20227;-80
2021/01/04 01:39:34;;;;;;;11.27;8.80;;;2.00;99.90;;;;;;5021655;28;20206;-80
2021/01/04 01:42:31;;;;;;;11.82;9.50;;;2.00;99.90;;;;;;5021218;28;20220;-80
2021/01/04 01:45:07;;;;;;;10.02;8.93;;;2.00;99.90;;;;;;5011960;28;20215;-79
2021/01/04 01:47:44;;;;;;;13.18;9.55;;;2.00;99.90;;;;;;5015927;28;20247;-79
2021/01/04 01:50:23;;;;;;;15.35;10.30;;;2.00;99.90;;;;;;5022223;28;20211;-80
2021/01/04 01:52:56;;;;;;;11.20;9.13;;;2.00;99.90;;;;;;5020917;28;20190;-80
2021/01/04 01:55:30;;;;;;;13.00;9.35;;;2.00;99.90;;;;;;5021604;28;20202;-78
2021/01/04 01:58:17;;;;;;;13.65;10.45;;;2.00;99.90;;;;;;5021937;28;20210;-80
2021/01/04 02:00:50;;;;;;;12.30;10.02;;;2.00;99.90;;;;;;5022356;28;20573;-80
2021/01/04 02:03:26;;;;;;;14.45;10.32;;;2.00;99.90;;;;;;5021807;28;20230;-80
2021/01/04 02:06:19;;;;;;;14.50;10.20;;;2.00;99.90;;;;;;5022132;28;20193;-80
2021/01/04 02:08:51;;;;;;;13.00;8.50;;;2.00;99.90;;;;;;5022499;28;20178;-79
2021/01/04 02:11:26;;;;;;;12.82;9.50;;;2.00;99.90;;;;;;5023058;28;20179;-80
2021/01/04 02:14:00;;;;;;;12.18;10.20;;;2.00;99.90;;;;;;5014606;28;20215;-78
2021/01/04 02:16:31;;;;;;;12.00;10.40;;;2.00;99.90;;;;;;5013535;28;20191;-80
2021/01/04 02:19:10;;;;;;;14.13;11.10;;;2.00;99.90;;;;;;5022924;28;20285;-80
2021/01/04 02:22:06;;;;;;;16.13;11.80;;;2.10;99.90;;;;;;5022614;28;20250;-80
2021/01/04 02:24:33;;;;;;;17.88;12.02;;;2.00;99.90;;;;;;5021701;28;20234;-79
2021/01/04 02:27:04;;;;;;;19.90;13.88;;;2.00;99.90;;;;;;5023066;28;20203;-81
2021/01/04 02:29:31;;;;;;;16.90;12.35;;;1.90;99.90;;;;;;5022283;28;20505;-79
2021/01/04 02:32:01;;;;;;;20.05;13.23;;;1.90;99.90;;;;;;5025981;28;20195;-79
2021/01/04 02:34:32;;;;;;;17.85;11.95;;;1.90;99.90;;;;;;5027068;28;20268;-79
2021/01/04 02:36:59;;;;;;;15.68;11.85;;;1.90;99.90;;;;;;5026617;28;20546;-79
2021/01/04 02:39:32;;;;;;;20.58;12.82;;;1.90;99.90;;;;;;5026490;28;20855;-80
2021/01/04 02:42:06;;;;;;;19.95;14.13;;;1.80;99.90;;;;;;5026807;28;20227;-77
2021/01/04 02:44:33;;;;;;;21.33;14.20;;;1.90;99.90;;;;;;5018156;28;20215;-79
2021/01/04 02:47:19;;;;;;;25.23;16.40;;;1.90;99.90;;;;;;5018376;28;20198;-79
2021/01/04 02:49:53;;;;;;;23.00;15.07;;;1.90;99.90;;;;;;5026721;28;20187;-80
2021/01/04 02:52:31;;;;;;;20.85;15.73;;;1.90;99.90;;;;;;5026707;28;20198;-80
2021/01/04 02:55:03;;;;;;;18.45;13.20;;;1.90;99.90;;;;;;5026522;28;20219;-79
2021/01/04 02:57:37;;;;;;;19.40;14.07;;;1.90;99.90;;;;;;5026915;28;20253;-81
2021/01/04 03:00:09;;;;;;;20.27;14.00;;;1.90;99.90;;;;;;5027901;28;20187;-80
2021/01/04 03:02:40;;;;;;;19.30;14.00;;;1.90;99.90;;;;;;5026768;28;20264;-80
2021/01/04 03:05:10;;;;;;;20.00;13.60;;;1.90;99.90;;;;;;5027877;28;20214;-79
2021/01/04 03:07:36;;;;;;;17.48;13.48;;;1.90;99.90;;;;;;5026590;28;20207;-79
2021/01/04 03:10:14;;;;;;;20.23;14.02;;;1.90;99.90;;;;;;5025736;28;20209;-78
2021/01/04 03:12:42;;;;;;;19.90;13.98;;;1.90;99.90;;;;;;5026153;28;20177;-81
2021/01/04 03:15:27;;;;;;;16.38;12.27;;;1.80;99.90;;;;;;5015708;28;20246;-80
2021/01/04 03:18:03;;;;;;;16.38;10.85;;;1.70;99.90;;;;;;5023156;28;20269;-78
2021/01/04 03:20:29;;;;;;;17.17;10.95;;;1.60;99.90;;;;;;5026124;28;20224;-79
2021/01/04 03:22:56;;;;;;;15.50;11.48;;;1.70;99.90;;;;;;5025129;28;20214;-80
2021/01/04 03:25:32;;;;;;;18.23;12.48;;;1.60;99.90;;;;;;5025495;28;20194;-82
2021/01/04 03:28:00;;;;;;;16.55;10.63;;;1.60;99.90;;;;;;5025037;28;20763;-78
2021/01/04 03:30:28;;;;;;;16.42;11.63;;;1.60;99.90;;;;;;5026020;28;20205;-81
2021/01/04 03:32:54;;;;;;;15.38;11.82;;;1.60;99.90;;;;;;5025137;28;20203;-81
2021/01/04 03:35:21;;;;;;;18.15;11.70;;;1.60;99.90;;;;;;5025936;28;20204;-81
2021/01/04 03:37:47;;;;;;;17.98;11.27;;;1.60;99.90;;;;;;5025616;28;20194;-80
2021/01/04 03:40:15;;;;;;;18.25;12.68;;;1.60;99.90;;;;;;5024966;28;20198;-81
2021/01/04 03:42:42;;;;;;;18.58;12.45;;;1.60;99.90;;;;;;5024175;28;20209;-80
2021/01/04 03:45:10;;;;;;;18.15;13.55;;;1.70;99.90;;;;;;5014732;28;20305;-80
2021/01/04 03:47:36;;;;;;;20.90;12.98;;;1.70;99.90;;;;;;5019266;28;20633;-80
2021/01/04 03:50:06;;;;;;;17.77;12.98;;;1.60;99.90;;;;;;5024862;28;20257;-80
2021/01/04 03:52:32;;;;;;;21.58;12.75;;;1.70;99.90;;;;;;5025027;28;20197;-80
2021/01/04 03:54:58;;;;;;;16.58;11.65;;;1.70;99.90;;;;;;5024932;28;20219;-80
2021/01/04 03:57:24;;;;;;;18.95;12.82;;;1.80;99.90;;;;;;5025437;28;20208;-80
2021/01/04 03:59:50;;;;;;;18.67;12.75;;;1.90;99.90;;;;;;5024967;28;20201;-79
2021/01/04 04:02:19;;;;;;;22.27;14.85;;;1.90;99.90;;;;;;5024054;28;20518;-81
2021/01/04 04:04:45;;;;;;;19.33;13.38;;;1.80;99.90;;;;;;5024414;28;20224;-81
2021/01/04 04:07:12;;;;;;;22.35;14.57;;;1.80;99.90;;;;;;5024950;28;20202;-81
2021/01/04 04:09:38;;;;;;;20.63;13.93;;;1.80;99.90;;;;;;5024912;28;20195;-80
2021/01/04 04:12:05;;;;;;;21.77;14.80;;;1.80;99.90;;;;;;5024683;28;20292;-80
2021/01/04 04:14:31;;;;;;;23.35;16.00;;;1.80;99.90;;;;;;5016032;28;20210;-79
2021/01/04 04:16:57;;;;;;;24.33;16.83;;;1.80;99.90;;;;;;5014713;28;20559;-80
2021/01/04 04:19:25;;;;;;;23.90;16.90;;;1.80;99.90;;;;;;5019971;28;20797;-81
2021/01/04 04:21:51;;;;;;;31.25;20.20;;;1.80;99.90;;;;;;5019340;28;20207;-79
2021/01/04 04:24:18;;;;;;;26.08;16.83;;;1.80;99.90;;;;;;5019230;28;20225;-79
2021/01/04 04:26:45;;;;;;;26.08;17.02;;;1.90;99.90;;;;;;5019381;28;20605;-79
2021/01/04 04:29:11;;;;;;;25.55;16.92;;;1.90;99.90;;;;;;5019390;28;20198;-80
2021/01/04 04:31:42;;;;;;;24.15;16.45;;;1.90;99.90;;;;;;5019324;28;20207;-78
2021/01/04 04:34:08;;;;;;;22.10;14.95;;;1.90;99.90;;;;;;5022584;28;20221;-79
2021/01/04 04:36:35;;;;;;;20.63;15.32;;;1.90;99.90;;;;;;5021915;28;20199;-80
2021/01/04 04:39:02;;;;;;;18.00;13.13;;;1.90;99.90;;;;;;5022536;28;20270;-80
2021/01/04 04:41:30;;;;;;;19.95;13.57;;;1.90;99.90;;;;;;5021437;28;20202;-80
2021/01/04 04:44:07;;;;;;;17.63;13.05;;;1.90;99.90;;;;;;5013038;28;20743;-80
2021/01/04 04:46:47;;;;;;;19.27;12.95;;;1.90;99.90;;;;;;5012208;28;20195;-80
2021/01/04 04:49:27;;;;;;;20.98;13.35;;;1.90;99.90;;;;;;5021451;28;20199;-80
2021/01/04 04:52:21;;;;;;;21.38;14.15;;;1.90;99.90;;;;;;5021514;28;20192;-79
2021/01/04 04:55:00;;;;;;;18.58;12.88;;;1.90;99.90;;;;;;5020420;28;20218;-81
2021/01/04 04:57:43;;;;;;;15.13;11.18;;;1.90;99.90;;;;;;5020133;28;20182;-79
2021/01/04 05:00:39;;;;;;;18.42;11.57;;;1.90;99.90;;;;;;5024853;28;20230;-79
2021/01/04 05:03:24;;;;;;;15.13;11.70;;;1.90;99.90;;;;;;5017415;28;20754;-79
2021/01/04 05:06:03;;;;;;;17.65;12.10;;;1.90;99.90;;;;;;5023556;28;20199;-79
2021/01/04 05:08:46;;;;;;;13.25;10.35;;;1.80;99.90;;;;;;5023907;28;20277;-80
2021/01/04 05:11:13;;;;;;;16.10;12.00;;;1.80;99.90;;;;;;5024986;28;20193;-79
2021/01/04 05:13:44;;;;;;;14.48;11.32;;;1.90;99.90;;;;;;5017252;28;20225;-80
2021/01/04 05:16:13;;;;;;;16.30;11.73;;;1.90;99.90;;;;;;5015498;28;20194;-79
2021/01/04 05:18:57;;;;;;;14.68;11.35;;;2.00;99.90;;;;;;5023015;28;20208;-79
2021/01/04 05:22:01;;;;;;;14.68;12.13;;;1.90;99.90;;;;;;5024579;28;20339;-79
2021/01/04 05:25:03;;;;;;;15.90;11.50;;;2.00;99.90;;;;;;5023996;28;20241;-81
2021/01/04 05:27:47;;;;;;;14.00;10.90;;;1.90;99.90;;;;;;5024360;28;20179;-80
2021/01/04 05:30:40;;;;;;;15.00;10.85;;;1.90;99.90;;;;;;5025025;28;20247;-80
2021/01/04 05:33:30;;;;;;;14.15;10.55;;;1.90;99.90;;;;;;5024369;28;21699;-81
2021/01/04 05:36:07;;;;;;;13.07;10.52;;;1.80;99.90;;;;;;5023829;28;20184;-80
2021/01/04 05:38:44;;;;;;;15.05;11.88;;;1.90;99.90;;;;;;5024031;28;20187;-80
2021/01/04 05:41:35;;;;;;;15.65;11.30;;;1.90;99.90;;;;;;5024993;28;20186;-81
2021/01/04 05:44:20;;;;;;;13.30;10.60;;;1.90;99.90;;;;;;5016574;28;20273;-81
2021/01/04 05:46:51;;;;;;;16.38;11.60;;;1.90;99.90;;;;;;5016626;28;20188;-80
2021/01/04 05:49:28;;;;;;;16.30;11.98;;;1.90;99.90;;;;;;5024947;28;20190;-79
2021/01/04 05:51:54;;;;;;;18.42;12.27;;;1.80;99.90;;;;;;5025331;28;20202;-80
2021/01/04 05:54:26;;;;;;;15.98;12.05;;;1.80;99.90;;;;;;5024540;28;20222;-81
2021/01/04 05:57:04;;;;;;;14.90;10.45;;;1.90;99.90;;;;;;5017352;28;20206;-80
2021/01/04 05:59:30;;;;;;;16.23;11.43;;;1.90;99.90;;;;;;5017035;28;20187;-80
2021/01/04 06:02:02;;;;;;;16.52;11.57;;;2.00;99.90;;;;;;5017529;28;20203;-80
2021/01/04 06:04:29;;;;;;;14.55;11.40;;;1.90;99.90;;;;;;5018302;28;20230;-79
2021/01/04 06:06:58;;;;;;;15.05;11.40;;;1.90;99.90;;;;;;5022723;28;20210;-79
2021/01/04 06:09:26;;;;;;;14.88;12.07;;;1.90;99.90;;;;;;5025178;28;20217;-80
2021/01/04 06:11:55;;;;;;;15.45;12.00;;;1.90;99.90;;;;;;5025456;28;20729;-80
2021/01/04 06:14:22;;;;;;;16.20;11.48;;;1.90;99.90;;;;;;5015507;28;20210;-80
2021/01/04 06:16:56;;;;;;;15.60;11.38;;;1.90;99.90;;;;;;5016225;28;20190;-80
2021/01/04 06:19:23;;;;;;;18.98;11.75;;;1.90;99.90;;;;;;5027210;28;20194;-80
2021/01/04 06:21:52;;;;;;;16.27;12.25;;;1.80;99.90;;;;;;5028065;28;20562;-80
2021/01/04 06:24:23;;;;;;;18.88;12.50;;;1.80;99.90;;;;;;5027552;28;20225;-80
2021/01/04 06:26:51;;;;;;;18.42;13.38;;;1.80;99.90;;;;;;5028051;28;20286;-81
2021/01/04 06:29:30;;;;;;;17.42;12.20;;;1.80;99.90;;;;;;5027392;28;20231;-80
2021/01/04 06:31:59;;;;;;;18.02;13.40;;;1.90;99.90;;;;;;5027129;28;20261;-80
2021/01/04 06:34:29;;;;;;;15.45;11.07;;;1.90;99.90;;;;;;5027137;28;20226;-80
2021/01/04 06:36:59;;;;;;;20.85;13.32;;;1.90;99.90;;;;;;5028106;28;20198;-80
2021/01/04 06:39:28;;;;;;;14.18;11.18;;;1.90;99.90;;;;;;5027821;28;20207;-81
2021/01/04 06:41:57;;;;;;;18.65;12.70;;;2.00;99.90;;;;;;5027135;28;20772;-81
2021/01/04 06:44:29;;;;;;;14.98;10.90;;;2.00;99.90;;;;;;5017039;28;20612;-81
2021/01/04 06:47:19;;;;;;;17.35;12.68;;;2.00;99.90;;;;;;5016360;28;20205;-81
2021/01/04 06:49:56;;;;;;;19.30;12.48;;;1.90;99.90;;;;;;5005734;28;20207;-81
2021/01/04 06:53:11;;;;;;;17.25;12.25;;;1.90;99.90;;;;;;5007126;28;20207;-81
2021/01/04 06:56:28;;;;;;;17.00;11.85;;;2.00;99.90;;;;;;5006137;28;20207;-81
2021/01/04 06:59:30;;;;;;;21.73;12.95;;;2.00;99.90;;;;;;5006857;28;20668;-81
2021/01/04 07:02:34;;;;;;;15.85;12.43;;;1.90;99.90;;;;;;4992443;28;20232;-81
2021/01/04 07:05:45;;;;;;;16.02;11.35;;;2.00;99.90;;;;;;5000620;28;20211;-80
2021/01/04 07:08:41;;;;;;;18.10;13.20;;;2.10;99.90;;;;;;5002521;28;20192;-81
2021/01/04 07:11:25;;;;;;;14.60;11.50;;;2.00;99.90;;;;;;5003372;28;20676;-81
2021/01/04 07:14:05;;;;;;;19.20;11.07;;;2.00;99.90;;;;;;5008973;28;20607;-81
2021/01/04 07:17:22;;;;;;;16.90;12.63;;;2.00;99.90;;;;;;5012449;28;20558;-80
2021/01/04 07:20:22;;;;;;;20.23;11.90;;;2.00;99.90;;;;;;4990184;28;20205;-81
2021/01/04 07:23:02;;;;;;;16.10;12.00;;;2.10;99.90;;;;;;4981681;28;20215;-79
2021/01/04 07:25:39;;;;;;;16.65;11.68;;;2.10;99.90;;;;;;5005299;28;20208;-80
2021/01/04 07:28:17;;;;;;;17.02;11.52;;;2.00;99.90;;;;;;4986352;28;20208;-81
2021/01/04 07:30:54;;;;;;;18.73;14.15;;;2.10;99.90;;;;;;5000670;28;20185;-82
2021/01/04 07:33:29;;;;;;;17.15;12.32;;;2.10;99.90;;;;;;4980541;28;20224;-81
2021/01/04 07:36:04;;;;;;;13.63;10.63;;;2.10;99.90;;;;;;5003173;28;20206;-81
2021/01/04 07:38:40;;;;;;;15.32;11.05;;;2.20;99.90;;;;;;5019344;28;20210;-80
2021/01/04 07:41:19;;;;;;;16.20;11.70;;;2.10;99.90;;;;;;5020304;28;20690;-80
2021/01/04 07:44:25;;;;;;;15.73;11.80;;;2.10;99.90;;;;;;5011800;28;20584;-81
2021/01/04 07:47:30;;;;;;;19.40;12.80;;;2.20;99.90;;;;;;5004468;28;20190;-81
2021/01/04 07:50:25;;;;;;;14.50;11.00;;;2.20;99.90;;;;;;5001358;28;20203;-80
2021/01/04 07:53:39;;;;;;;16.67;10.60;;;2.10;99.90;;;;;;5009225;28;20254;-80
2021/01/04 07:56:47;;;;;;;16.73;11.38;;;2.10;99.90;;;;;;4963040;29;20236;-80
2021/01/04 08:00:01;;;;;;;15.77;11.50;;;2.10;99.90;;;;;;5006431;28;20202;-80
2021/01/04 08:03:17;;;;;;;13.48;10.35;;;2.20;99.90;;;;;;5005950;28;20210;-79
2021/01/04 08:06:32;;;;;;;15.15;10.10;;;2.20;99.90;;;;;;5015781;28;20181;-80
2021/01/04 08:09:06;;;;;;;12.82;9.45;;;2.20;99.90;;;;;;5023407;28;20211;-80
2021/01/04 08:12:14;;;;;;;16.05;10.77;;;2.20;99.90;;;;;;5023400;28;20730;-84
2021/01/04 08:14:57;;;;;;;14.27;11.25;;;2.20;99.90;;;;;;5000751;28;20238;-81
2021/01/04 08:17:39;;;;;;;16.73;11.63;;;2.20;99.90;;;;;;5021516;28;20229;-82
2021/01/04 08:20:08;;;;;;;16.00;10.75;;;2.20;99.90;;;;;;5021916;28;20178;-79
2021/01/04 08:23:02;;;;;;;19.40;11.55;;;2.20;99.90;;;;;;5021475;28;20215;-79
2021/01/04 08:25:52;;;;;;;13.13;10.57;;;2.20;99.90;;;;;;5021562;28;20196;-81
2021/01/04 08:28:23;;;;;;;16.98;11.40;;;2.20;99.90;;;;;;5024152;28;20199;-81
2021/01/04 08:30:59;;;;;;;14.10;10.85;;;2.20;99.90;;;;;;5023665;28;20225;-81
2021/01/04 08:33:40;;;;;;;17.27;12.05;;;2.20;99.90;;;;;;5023199;28;20219;-82
2021/01/04 08:36:18;;;;;;;18.30;12.18;;;2.20;99.90;;;;;;5023744;28;20183;-82
2021/01/04 08:38:44;;;;;;;16.60;12.40;;;2.20;99.90;;;;;;5022596;28;20192;-80
2021/01/04 08:41:27;;;;;;;18.60;11.80;;;2.20;99.90;;;;;;5014402;28;20203;-80
2021/01/04 08:43:53;;;;;;;20.27;12.80;;;2.10;99.90;;;;;;5004109;28;20225;-80
2021/01/04 08:46:32;;;;;;;16.73;11.07;;;2.10;99.90;;;;;;5015923;28;20225;-79
2021/01/04 08:49:02;;;;;;;18.35;12.50;;;2.10;99.90;;;;;;5022092;28;20212;-78
2021/01/04 08:51:35;;;;;;;16.23;11.45;;;2.20;99.90;;;;;;5022323;28;20220;-81
2021/01/04 08:54:15;;;;;;;16.52;12.40;;;2.20;99.90;;;;;;5020917;28;20210;-80
2021/01/04 08:56:44;;;;;;;17.08;11.00;;;2.30;99.90;;;;;;5008575;28;20256;-81
2021/01/04 08:59:13;;;;;;;15.73;10.63;;;2.30;99.90;;;;;;5002471;28;20195;-81
2021/01/04 09:01:53;;;;;;;14.23;11.02;;;2.30;99.90;;;;;;5002444;28;20210;-79
2021/01/04 09:04:35;;;;;;;16.17;11.55;;;2.30;99.90;;;;;;5001536;28;20287;-79
2021/01/04 09:07:12;;;;;;;15.70;10.40;;;2.30;99.90;;;;;;5001788;28;20200;-81
2021/01/04 09:09:43;;;;;;;15.30;11.15;;;2.30;99.90;;;;;;5002550;28;20235;-80
2021/01/04 09:12:25;;;;;;;12.85;9.30;;;2.30;99.90;;;;;;5003588;28;20678;-82
2021/01/04 09:14:55;;;;;;;13.30;9.27;;;2.30;99.90;;;;;;5004840;28;20233;-81
2021/01/04 09:17:47;;;;;;;13.77;9.50;;;2.30;99.90;;;;;;5022560;28;20317;-80
2021/01/04 09:20:39;;;;;;;17.92;11.20;;;2.30;99.90;;;;;;5021553;28;20206;-78
2021/01/04 09:23:09;;;;;;;14.82;10.15;;;2.30;99.90;;;;;;5003314;28;20271;-82
2021/01/04 09:25:46;;;;;;;12.23;9.18;;;2.30;99.90;;;;;;5006998;28;20208;-82
2021/01/04 09:28:15;;;;;;;14.98;9.55;;;2.40;99.90;;;;;;5006209;28;20206;-81
2021/01/04 09:30:42;;;;;;;17.20;10.57;;;2.40;99.90;;;;;;5005409;28;20226;-83
2021/01/04 09:33:12;;;;;;;14.68;10.55;;;2.30;99.90;;;;;;5001108;28;20211;-84
2021/01/04 09:35:39;;;;;;;14.07;10.27;;;2.40;99.90;;;;;;4979013;28;20265;-82
2021/01/04 09:38:08;;;;;;;13.02;10.18;;;2.50;99.90;;;;;;4979230;28;20201;-81
2021/01/04 09:40:35;;;;;;;14.05;9.90;;;2.40;99.90;;;;;;4978946;28;20199;-82
2021/01/04 09:43:07;;;;;;;15.25;10.90;;;2.40;99.90;;;;;;4981030;28;20235;-80
2021/01/04 09:45:35;;;;;;;15.43;10.43;;;2.40;99.90;;;;;;5005859;28;20192;-82
2021/01/04 09:48:05;;;;;;;15.57;11.15;;;2.40;99.90;;;;;;5013653;28;20190;-81
2021/01/04 09:50:34;;;;;;;14.90;11.20;;;2.30;99.90;;;;;;5015439;28;20205;-80
2021/01/04 09:53:04;;;;;;;15.15;10.15;;;2.40;99.90;;;;;;5015573;28;20692;-81
2021/01/04 09:55:33;;;;;;;15.77;10.40;;;2.40;99.90;;;;;;5013078;28;20316;-82
2021/01/04 09:58:03;;;;;;;13.60;9.88;;;2.50;99.90;;;;;;4995900;28;20196;-81
2021/01/04 10:00:33;;;;;;;14.88;11.18;;;2.50;99.90;;;;;;4996365;28;20566;-82
2021/01/04 10:03:03;;;;;;;14.52;9.20;;;2.60;99.90;;;;;;4995821;28;20678;-80
2021/01/04 10:05:35;;;;;;;14.85;10.70;;;2.60;99.90;;;;;;4996510;28;20203;-80
2021/01/04 10:08:06;;;;;;;14.93;10.93;;;2.60;99.90;;;;;;4995867;28;20622;-81
2021/01/04 10:10:32;;;;;;;14.98;10.88;;;2.60;99.90;;;;;;4996433;28;20188;-81
2021/01/04 10:13:10;;;;;;;11.43;9.18;;;2.50;99.90;;;;;;4995076;28;20197;-80
2021/01/04 10:15:37;;;;;;;14.15;10.02;;;2.60;99.90;;;;;;5004636;28;20752;-82
2021/01/04 10:18:15;;;;;;;12.60;9.15;;;2.70;99.90;;;;;;5013811;28;20203;-81
2021/01/04 10:20:47;;;;;;;14.60;10.73;;;2.60;99.90;;;;;;5015579;28;20195;-81
2021/01/04 10:23:21;;;;;;;14.38;10.68;;;2.70;99.90;;;;;;5009999;28;20234;-81
2021/01/04 10:25:51;;;;;;;13.10;10.20;;;2.60;99.90;;;;;;4995921;28;20189;-81
2021/01/04 10:28:18;;;;;;;12.45;9.05;;;2.60;99.90;;;;;;4996087;28;20224;-80
2021/01/04 10:30:44;;;;;;;13.55;9.98;;;2.70;99.90;;;;;;4996578;28;20200;-81
2021/01/04 10:33:24;;;;;;;14.20;9.68;;;2.70;99.90;;;;;;4995661;28;20219;-82
2021/01/04 10:36:01;;;;;;;14.68;10.55;;;2.60;99.90;;;;;;4995567;28;20681;-81
2021/01/04 10:38:29;;;;;;;14.32;10.50;;;2.70;99.90;;;;;;4996123;28;20206;-83
2021/01/04 10:40:56;;;;;;;12.00;9.52;;;2.70;99.90;;;;;;4995692;28;20206;-81
2021/01/04 10:43:25;;;;;;;15.77;12.07;;;2.70;99.90;;;;;;4995433;28;20223;-81
2021/01/04 10:45:52;;;;;;;19.60;12.95;;;2.80;99.90;;;;;;4995846;28;20206;-82
2021/01/04 10:48:22;;;;;;;19.80;12.80;;;2.70;99.90;;;;;;5014201;28;20205;-81
2021/01/04 10:50:51;;;;;;;19.20;12.10;;;2.70;99.90;;;;;;5014936;28;20203;-79
2021/01/04 10:53:31;;;;;;;18.20;13.05;;;2.70;99.90;;;;;;5017617;28;20210;-81
2021/01/04 10:56:21;;;;;;;23.23;13.90;;;2.70;99.90;;;;;;5011969;28;20196;-81
2021/01/04 10:58:56;;;;;;;20.67;13.45;;;2.70;99.90;;;;;;4998365;28;20197;-80
2021/01/04 11:01:25;;;;;;;21.13;13.77;;;2.70;99.90;;;;;;5000733;28;20219;-81
2021/01/04 11:03:54;;;;;;;20.80;13.90;;;2.70;99.90;;;;;;4998064;28;20232;-78
2021/01/04 11:06:23;;;;;;;20.05;14.60;;;2.80;99.90;;;;;;4998101;28;20266;-83
2021/01/04 11:08:51;;;;;;;23.33;15.90;;;2.80;99.90;;;;;;4998142;28;20207;-82
2021/01/04 11:11:31;;;;;;;23.75;15.18;;;2.80;99.90;;;;;;4998297;28;20197;-80
2021/01/04 11:14:06;;;;;;;22.38;14.65;;;2.70;99.90;;;;;;4999156;28;20295;-78
2021/01/04 11:16:41;;;;;;;28.95;14.10;;;2.70;99.90;;;;;;5012064;28;20197;-80
2021/01/04 11:19:08;;;;;;;20.05;13.15;;;2.80;99.90;;;;;;4998632;28;20527;-80
2021/01/04 11:21:36;;;;;;;24.10;15.15;;;2.80;99.90;;;;;;4998005;28;20578;-80
2021/01/04 11:24:04;;;;;;;23.85;13.80;;;2.90;99.90;;;;;;4998972;28;20232;-81
2021/01/04 11:26:30;;;;;;;22.15;13.77;;;2.90;99.90;;;;;;4994165;28;20263;-81
2021/01/04 11:28:57;;;;;;;18.27;12.50;;;2.90;99.90;;;;;;4998565;28;20195;-82
2021/01/04 11:31:23;;;;;;;16.77;11.48;;;3.00;99.90;;;;;;4999882;28;20222;-84
2021/01/04 11:33:50;;;;;;;19.73;13.43;;;3.00;99.90;;;;;;4999031;28;20224;-80
2021/01/04 11:36:16;;;;;;;19.88;13.40;;;3.00;99.90;;;;;;4998147;28;20570;-80
2021/01/04 11:38:42;;;;;;;22.35;13.38;;;3.10;99.90;;;;;;4999706;28;20194;-81
2021/01/04 11:41:12;;;;;;;20.48;13.02;;;3.10;99.90;;;;;;5004106;28;20238;-80
2021/01/04 11:43:38;;;;;;;19.20;12.45;;;3.10;99.90;;;;;;5004403;28;20238;-83
2021/01/04 11:46:04;;;;;;;23.83;15.35;;;3.10;99.90;;;;;;5013845;28;20215;-81
2021/01/04 11:48:31;;;;;;;19.63;13.40;;;3.10;99.90;;;;;;5024105;28;20208;-81
2021/01/04 11:50:57;;;;;;;18.92;13.68;;;3.10;99.90;;;;;;5018269;28;20199;-80
2021/01/04 11:53:23;;;;;;;19.73;12.85;;;3.10;99.90;;;;;;5017914;28;20212;-81
2021/01/04 11:55:50;;;;;;;23.73;13.98;;;3.10;99.90;;;;;;5013194;28;20562;-81
2021/01/04 11:58:17;;;;;;;20.08;14.00;;;3.20;99.90;;;;;;5001896;28;20335;-82
2021/01/04 12:00:43;;;;;;;18.10;13.57;;;3.20;99.90;;;;;;5006983;28;20192;-85
2021/01/04 12:03:11;;;;;;;17.95;12.05;;;3.20;99.90;;;;;;5000209;28;20266;-81
2021/01/04 12:05:37;;;;;;;21.05;14.70;;;3.20;99.90;;;;;;5001366;28;20286;-81
2021/01/04 12:08:04;;;;;;;27.17;15.88;;;3.00;99.90;;;;;;4999947;28;20196;-80
2021/01/04 12:10:30;;;;;;;25.15;13.80;;;3.10;99.90;;;;;;4999984;28;20254;-82
2021/01/04 12:12:57;;;;;;;16.80;13.07;;;3.10;99.90;;;;;;4999142;28;20204;-82
2021/01/04 12:15:25;;;;;;;20.00;13.05;;;3.00;99.90;;;;;;5007123;28;20283;-80
2021/01/04 12:17:51;;;;;;;21.33;14.32;;;3.10;99.90;;;;;;5015531;28;20218;-83
2021/01/04 12:20:18;;;;;;;23.85;14.38;;;3.10;99.90;;;;;;5017941;28;20250;-83
2021/01/04 12:22:44;;;;;;;17.23;12.25;;;3.20;99.90;;;;;;5017798;28;20206;-82
2021/01/04 12:25:12;;;;;;;17.10;12.75;;;3.20;99.90;;;;;;5017948;28;20230;-82
2021/01/04 12:27:39;;;;;;;18.10;12.50;;;3.20;99.90;;;;;;4998116;28;20218;-82
2021/01/04 12:30:07;;;;;;;18.52;12.07;;;3.30;99.90;;;;;;4997915;28;20566;-81
2021/01/04 12:32:34;;;;;;;18.58;11.25;;;3.30;99.90;;;;;;4998582;28;20208;-82
2021/01/04 12:35:01;;;;;;;15.45;11.50;;;3.20;99.90;;;;;;4997269;28;20290;-82
2021/01/04 12:37:27;;;;;;;18.13;11.48;;;3.20;99.90;;;;;;4998329;28;20196;-82
2021/01/04 12:39:54;;;;;;;18.60;12.23;;;3.20;99.90;;;;;;4998324;28;20196;-81
2021/01/04 12:42:20;;;;;;;15.23;11.40;;;3.20;99.90;;;;;;4998592;28;20198;-83
2021/01/04 12:44:48;;;;;;;17.73;10.77;;;3.20;99.90;;;;;;4997751;28;20282;-82
2021/01/04 12:47:14;;;;;;;14.57;10.50;;;3.20;99.90;;;;;;5005672;28;20249;-84
2021/01/04 12:49:44;;;;;;;15.85;10.95;;;3.30;99.90;;;;;;4996906;28;20674;-82
2021/01/04 12:52:10;;;;;;;18.13;13.13;;;3.30;99.90;;;;;;4997604;28;20203;-82
2021/01/04 12:54:37;;;;;;;17.48;11.88;;;3.20;99.90;;;;;;4997191;28;20216;-82
2021/01/04 12:57:08;;;;;;;13.65;10.48;;;3.20;99.90;;;;;;4997532;28;20207;-81
2021/01/04 12:59:39;;;;;;;18.95;12.07;;;3.30;99.90;;;;;;4996857;28;20230;-82
2021/01/04 13:02:05;;;;;;;16.85;11.75;;;3.30;99.90;;;;;;4997292;28;20243;-81
2021/01/04 13:04:31;;;;;;;15.82;10.30;;;3.10;99.90;;;;;;4995947;28;20239;-83
2021/01/04 13:06:59;;;;;;;14.82;11.45;;;3.20;99.90;;;;;;4997378;28;20703;-80
2021/01/04 13:09:26;;;;;;;16.25;11.20;;;3.20;99.90;;;;;;4997682;28;20289;-82
2021/01/04 13:11:53;;;;;;;15.77;11.10;;;3.20;99.90;;;;;;4997444;28;20200;-82
2021/01/04 13:14:20;;;;;;;15.20;11.13;;;3.20;99.90;;;;;;5000385;28;20214;-82
2021/01/04 13:16:47;;;;;;;19.58;11.52;;;3.20;99.90;;;;;;5001611;28;20197;-81
2021/01/04 13:19:14;;;;;;;12.93;10.65;;;3.20;99.90;;;;;;4996152;28;20203;-80